<?xml version="1.0" encoding="UTF-8" standalone="no" ?>
<gpx xmlns="http://www.topografix.com/GPX/1/1" xmlns:xsi="http://www.w3.org/2001/XMLSchema-instance" xsi:schemaLocation="http://www.topografix.com/GPX/1/1 http://www.topografix.com/GPX/1/1/gpx.xsd" version="1.1" creator="VisuGPX - https://www.visugpx.com">
  <metadata>
    <name>Mont Margeriaz par le Trou de l'Agneau</name>
    <desc><![CDATA[En boucle en montant par la face w et en redescendant par le col de la Verne.

Le Trou de l'Agneau nécessite de faire un petit pas d'escalade. On peut se passer de frontale. Très joli]]></desc>
  </metadata>
  <trk>
    <name><![CDATA[Tracé actuel: 01 JUIL 2018 09:05]]></name>
    <trkseg>
      <trkpt lat="45.6239" lon="6.0164">
        <ele>1004.72</ele>
        <time>2018-07-01T07:09:37Z</time>
      </trkpt>
      <trkpt lat="45.62412" lon="6.01631">
        <ele>1006.64</ele>
        <time>2018-07-01T07:10:03Z</time>
      </trkpt>
      <trkpt lat="45.62435" lon="6.0163">
        <ele>1007.6</ele>
        <time>2018-07-01T07:10:25Z</time>
      </trkpt>
      <trkpt lat="45.62474" lon="6.01631">
        <ele>1009.52</ele>
        <time>2018-07-01T07:10:59Z</time>
      </trkpt>
      <trkpt lat="45.62497" lon="6.01604">
        <ele>1012.41</ele>
        <time>2018-07-01T07:11:30Z</time>
      </trkpt>
      <trkpt lat="45.6251" lon="6.01577">
        <ele>1013.85</ele>
        <time>2018-07-01T07:11:51Z</time>
      </trkpt>
      <trkpt lat="45.62525" lon="6.01535">
        <ele>1015.29</ele>
        <time>2018-07-01T07:12:21Z</time>
      </trkpt>
      <trkpt lat="45.62545" lon="6.01483">
        <ele>1017.69</ele>
        <time>2018-07-01T07:12:56Z</time>
      </trkpt>
      <trkpt lat="45.62564" lon="6.01465">
        <ele>1019.62</ele>
        <time>2018-07-01T07:13:19Z</time>
      </trkpt>
      <trkpt lat="45.62591" lon="6.01489">
        <ele>1024.42</ele>
        <time>2018-07-01T07:13:52Z</time>
      </trkpt>
      <trkpt lat="45.62621" lon="6.0151">
        <ele>1026.83</ele>
        <time>2018-07-01T07:14:23Z</time>
      </trkpt>
      <trkpt lat="45.6264" lon="6.01537">
        <ele>1031.15</ele>
        <time>2018-07-01T07:14:50Z</time>
      </trkpt>
      <trkpt lat="45.6266" lon="6.01559">
        <ele>1035.48</ele>
        <time>2018-07-01T07:15:16Z</time>
      </trkpt>
      <trkpt lat="45.62683" lon="6.01555">
        <ele>1037.88</ele>
        <time>2018-07-01T07:15:39Z</time>
      </trkpt>
      <trkpt lat="45.62708" lon="6.01557">
        <ele>1039.32</ele>
        <time>2018-07-01T07:16:03Z</time>
      </trkpt>
      <trkpt lat="45.62736" lon="6.01546">
        <ele>1042.69</ele>
        <time>2018-07-01T07:16:34Z</time>
      </trkpt>
      <trkpt lat="45.62762" lon="6.01546">
        <ele>1046.05</ele>
        <time>2018-07-01T07:17:00Z</time>
      </trkpt>
      <trkpt lat="45.62795" lon="6.01554">
        <ele>1048.45</ele>
        <time>2018-07-01T07:17:32Z</time>
      </trkpt>
      <trkpt lat="45.6282" lon="6.01564">
        <ele>1051.82</ele>
        <time>2018-07-01T07:17:59Z</time>
      </trkpt>
      <trkpt lat="45.62835" lon="6.01603">
        <ele>1054.7</ele>
        <time>2018-07-01T07:18:33Z</time>
      </trkpt>
      <trkpt lat="45.62826" lon="6.01644">
        <ele>1058.07</ele>
        <time>2018-07-01T07:19:05Z</time>
      </trkpt>
      <trkpt lat="45.62805" lon="6.01678">
        <ele>1063.84</ele>
        <time>2018-07-01T07:19:47Z</time>
      </trkpt>
      <trkpt lat="45.62793" lon="6.01706">
        <ele>1068.64</ele>
        <time>2018-07-01T07:20:22Z</time>
      </trkpt>
      <trkpt lat="45.62808" lon="6.01739">
        <ele>1073.93</ele>
        <time>2018-07-01T07:20:59Z</time>
      </trkpt>
      <trkpt lat="45.62821" lon="6.01765">
        <ele>1079.7</ele>
        <time>2018-07-01T07:21:35Z</time>
      </trkpt>
      <trkpt lat="45.6284" lon="6.01794">
        <ele>1087.39</ele>
        <time>2018-07-01T07:22:24Z</time>
      </trkpt>
      <trkpt lat="45.62863" lon="6.0182">
        <ele>1094.12</ele>
        <time>2018-07-01T07:23:09Z</time>
      </trkpt>
      <trkpt lat="45.62871" lon="6.01856">
        <ele>1099.89</ele>
        <time>2018-07-01T07:23:46Z</time>
      </trkpt>
      <trkpt lat="45.62884" lon="6.01891">
        <ele>1107.1</ele>
        <time>2018-07-01T07:24:40Z</time>
      </trkpt>
      <trkpt lat="45.62903" lon="6.01915">
        <ele>1114.79</ele>
        <time>2018-07-01T07:25:17Z</time>
      </trkpt>
      <trkpt lat="45.62917" lon="6.01947">
        <ele>1120.07</ele>
        <time>2018-07-01T07:25:48Z</time>
      </trkpt>
      <trkpt lat="45.62922" lon="6.01978">
        <ele>1122.96</ele>
        <time>2018-07-01T07:26:22Z</time>
      </trkpt>
      <trkpt lat="45.62899" lon="6.01982">
        <ele>1128.24</ele>
        <time>2018-07-01T07:27:05Z</time>
      </trkpt>
      <trkpt lat="45.62886" lon="6.02003">
        <ele>1133.05</ele>
        <time>2018-07-01T07:27:44Z</time>
      </trkpt>
      <trkpt lat="45.62894" lon="6.02032">
        <ele>1137.86</ele>
        <time>2018-07-01T07:28:14Z</time>
      </trkpt>
      <trkpt lat="45.62917" lon="6.02032">
        <ele>1141.7</ele>
        <time>2018-07-01T07:28:46Z</time>
      </trkpt>
      <trkpt lat="45.62937" lon="6.02047">
        <ele>1144.59</ele>
        <time>2018-07-01T07:29:14Z</time>
      </trkpt>
      <trkpt lat="45.62957" lon="6.02075">
        <ele>1150.84</ele>
        <time>2018-07-01T07:29:52Z</time>
      </trkpt>
      <trkpt lat="45.62981" lon="6.02064">
        <ele>1150.84</ele>
        <time>2018-07-01T07:30:55Z</time>
      </trkpt>
      <trkpt lat="45.63001" lon="6.02047">
        <ele>1151.32</ele>
        <time>2018-07-01T07:31:20Z</time>
      </trkpt>
      <trkpt lat="45.63024" lon="6.02042">
        <ele>1154.2</ele>
        <time>2018-07-01T07:32:01Z</time>
      </trkpt>
      <trkpt lat="45.63047" lon="6.0207">
        <ele>1160.93</ele>
        <time>2018-07-01T07:32:50Z</time>
      </trkpt>
      <trkpt lat="45.6304" lon="6.02105">
        <ele>1165.26</ele>
        <time>2018-07-01T07:33:28Z</time>
      </trkpt>
      <trkpt lat="45.63029" lon="6.02145">
        <ele>1171.98</ele>
        <time>2018-07-01T07:34:09Z</time>
      </trkpt>
      <trkpt lat="45.63015" lon="6.02178">
        <ele>1177.75</ele>
        <time>2018-07-01T07:34:44Z</time>
      </trkpt>
      <trkpt lat="45.63002" lon="6.02213">
        <ele>1184</ele>
        <time>2018-07-01T07:35:21Z</time>
      </trkpt>
      <trkpt lat="45.63009" lon="6.02243">
        <ele>1187.85</ele>
        <time>2018-07-01T07:35:55Z</time>
      </trkpt>
      <trkpt lat="45.63012" lon="6.0228">
        <ele>1193.61</ele>
        <time>2018-07-01T07:36:33Z</time>
      </trkpt>
      <trkpt lat="45.63029" lon="6.02316">
        <ele>1199.86</ele>
        <time>2018-07-01T07:37:11Z</time>
      </trkpt>
      <trkpt lat="45.6303" lon="6.02352">
        <ele>1205.63</ele>
        <time>2018-07-01T07:37:47Z</time>
      </trkpt>
      <trkpt lat="45.63021" lon="6.024">
        <ele>1207.07</ele>
        <time>2018-07-01T07:38:27Z</time>
      </trkpt>
      <trkpt lat="45.63024" lon="6.02444">
        <ele>1209.96</ele>
        <time>2018-07-01T07:38:57Z</time>
      </trkpt>
      <trkpt lat="45.63036" lon="6.02446">
        <ele>1210.92</ele>
        <time>2018-07-01T07:40:11Z</time>
      </trkpt>
      <trkpt lat="45.6307" lon="6.02437">
        <ele>1215.24</ele>
        <time>2018-07-01T07:40:51Z</time>
      </trkpt>
      <trkpt lat="45.63096" lon="6.02417">
        <ele>1215.24</ele>
        <time>2018-07-01T07:41:33Z</time>
      </trkpt>
      <trkpt lat="45.63115" lon="6.024">
        <ele>1215.24</ele>
        <time>2018-07-01T07:41:59Z</time>
      </trkpt>
      <trkpt lat="45.63144" lon="6.02408">
        <ele>1215.24</ele>
        <time>2018-07-01T07:42:22Z</time>
      </trkpt>
      <trkpt lat="45.63168" lon="6.02442">
        <ele>1215.24</ele>
        <time>2018-07-01T07:42:50Z</time>
      </trkpt>
      <trkpt lat="45.63194" lon="6.0247">
        <ele>1217.17</ele>
        <time>2018-07-01T07:43:21Z</time>
      </trkpt>
      <trkpt lat="45.63217" lon="6.02488">
        <ele>1218.13</ele>
        <time>2018-07-01T07:43:49Z</time>
      </trkpt>
      <trkpt lat="45.63232" lon="6.02465">
        <ele>1219.57</ele>
        <time>2018-07-01T07:44:17Z</time>
      </trkpt>
      <trkpt lat="45.63241" lon="6.02431">
        <ele>1220.53</ele>
        <time>2018-07-01T07:44:42Z</time>
      </trkpt>
      <trkpt lat="45.63251" lon="6.024">
        <ele>1221.01</ele>
        <time>2018-07-01T07:45:00Z</time>
      </trkpt>
      <trkpt lat="45.63274" lon="6.02382">
        <ele>1222.93</ele>
        <time>2018-07-01T07:45:26Z</time>
      </trkpt>
      <trkpt lat="45.63299" lon="6.02384">
        <ele>1224.86</ele>
        <time>2018-07-01T07:45:57Z</time>
      </trkpt>
      <trkpt lat="45.63319" lon="6.02405">
        <ele>1233.51</ele>
        <time>2018-07-01T07:46:58Z</time>
      </trkpt>
      <trkpt lat="45.63341" lon="6.02412">
        <ele>1240.24</ele>
        <time>2018-07-01T07:47:38Z</time>
      </trkpt>
      <trkpt lat="45.63363" lon="6.02428">
        <ele>1247.93</ele>
        <time>2018-07-01T07:48:27Z</time>
      </trkpt>
      <trkpt lat="45.63383" lon="6.02452">
        <ele>1253.7</ele>
        <time>2018-07-01T07:49:05Z</time>
      </trkpt>
      <trkpt lat="45.63405" lon="6.02466">
        <ele>1261.87</ele>
        <time>2018-07-01T07:49:57Z</time>
      </trkpt>
      <trkpt lat="45.63431" lon="6.02473">
        <ele>1271.48</ele>
        <time>2018-07-01T07:51:01Z</time>
      </trkpt>
      <trkpt lat="45.63457" lon="6.02467">
        <ele>1281.09</ele>
        <time>2018-07-01T07:52:05Z</time>
      </trkpt>
      <trkpt lat="45.6348" lon="6.02449">
        <ele>1289.75</ele>
        <time>2018-07-01T07:52:56Z</time>
      </trkpt>
      <trkpt lat="45.63502" lon="6.02428">
        <ele>1295.51</ele>
        <time>2018-07-01T07:53:36Z</time>
      </trkpt>
      <trkpt lat="45.63521" lon="6.02402">
        <ele>1300.32</ele>
        <time>2018-07-01T07:54:19Z</time>
      </trkpt>
      <trkpt lat="45.63543" lon="6.02384">
        <ele>1305.13</ele>
        <time>2018-07-01T07:54:58Z</time>
      </trkpt>
      <trkpt lat="45.63566" lon="6.02368">
        <ele>1312.34</ele>
        <time>2018-07-01T07:55:40Z</time>
      </trkpt>
      <trkpt lat="45.63588" lon="6.02365">
        <ele>1319.55</ele>
        <time>2018-07-01T07:56:30Z</time>
      </trkpt>
      <trkpt lat="45.63609" lon="6.02357">
        <ele>1330.12</ele>
        <time>2018-07-01T07:57:37Z</time>
      </trkpt>
      <trkpt lat="45.63631" lon="6.02354">
        <ele>1338.77</ele>
        <time>2018-07-01T07:58:26Z</time>
      </trkpt>
      <trkpt lat="45.63655" lon="6.02355">
        <ele>1344.06</ele>
        <time>2018-07-01T07:59:28Z</time>
      </trkpt>
      <trkpt lat="45.63676" lon="6.02364">
        <ele>1343.58</ele>
        <time>2018-07-01T08:01:09Z</time>
      </trkpt>
      <trkpt lat="45.63678" lon="6.02349">
        <ele>1344.06</ele>
        <time>2018-07-01T08:04:00Z</time>
      </trkpt>
      <trkpt lat="45.63688" lon="6.02356">
        <ele>1344.54</ele>
        <time>2018-07-01T08:05:29Z</time>
      </trkpt>
      <trkpt lat="45.63716" lon="6.02359">
        <ele>1340.7</ele>
        <time>2018-07-01T08:06:09Z</time>
      </trkpt>
      <trkpt lat="45.63739" lon="6.02359">
        <ele>1338.77</ele>
        <time>2018-07-01T08:06:32Z</time>
      </trkpt>
      <trkpt lat="45.63762" lon="6.02373">
        <ele>1339.25</ele>
        <time>2018-07-01T08:07:07Z</time>
      </trkpt>
      <trkpt lat="45.63765" lon="6.02407">
        <ele>1349.35</ele>
        <time>2018-07-01T08:07:59Z</time>
      </trkpt>
      <trkpt lat="45.63746" lon="6.02436">
        <ele>1354.63</ele>
        <time>2018-07-01T08:08:39Z</time>
      </trkpt>
      <trkpt lat="45.63728" lon="6.02469">
        <ele>1359.44</ele>
        <time>2018-07-01T08:09:18Z</time>
      </trkpt>
      <trkpt lat="45.63712" lon="6.02496">
        <ele>1362.33</ele>
        <time>2018-07-01T08:09:47Z</time>
      </trkpt>
      <trkpt lat="45.63696" lon="6.02535">
        <ele>1365.69</ele>
        <time>2018-07-01T08:10:21Z</time>
      </trkpt>
      <trkpt lat="45.63678" lon="6.02581">
        <ele>1367.61</ele>
        <time>2018-07-01T08:11:02Z</time>
      </trkpt>
      <trkpt lat="45.63661" lon="6.02611">
        <ele>1370.02</ele>
        <time>2018-07-01T08:11:31Z</time>
      </trkpt>
      <trkpt lat="45.63644" lon="6.02654">
        <ele>1373.38</ele>
        <time>2018-07-01T08:12:08Z</time>
      </trkpt>
      <trkpt lat="45.63635" lon="6.02683">
        <ele>1378.19</ele>
        <time>2018-07-01T08:12:44Z</time>
      </trkpt>
      <trkpt lat="45.63627" lon="6.02714">
        <ele>1387.8</ele>
        <time>2018-07-01T08:13:36Z</time>
      </trkpt>
      <trkpt lat="45.63627" lon="6.02751">
        <ele>1399.82</ele>
        <time>2018-07-01T08:14:42Z</time>
      </trkpt>
      <trkpt lat="45.63629" lon="6.02792">
        <ele>1411.35</ele>
        <time>2018-07-01T08:15:47Z</time>
      </trkpt>
      <trkpt lat="45.63608" lon="6.02814">
        <ele>1423.85</ele>
        <time>2018-07-01T08:17:04Z</time>
      </trkpt>
      <trkpt lat="45.63586" lon="6.02828">
        <ele>1434.42</ele>
        <time>2018-07-01T08:18:05Z</time>
      </trkpt>
      <trkpt lat="45.63579" lon="6.02852">
        <ele>1445</ele>
        <time>2018-07-01T08:19:10Z</time>
      </trkpt>
      <trkpt lat="45.63554" lon="6.0287">
        <ele>1456.53</ele>
        <time>2018-07-01T08:20:15Z</time>
      </trkpt>
      <trkpt lat="45.63561" lon="6.0289">
        <ele>1463.74</ele>
        <time>2018-07-01T08:21:28Z</time>
      </trkpt>
      <trkpt lat="45.63563" lon="6.02924">
        <ele>1476.24</ele>
        <time>2018-07-01T08:22:43Z</time>
      </trkpt>
      <trkpt lat="45.63554" lon="6.02955">
        <ele>1484.41</ele>
        <time>2018-07-01T08:23:32Z</time>
      </trkpt>
      <trkpt lat="45.63545" lon="6.02987">
        <ele>1496.91</ele>
        <time>2018-07-01T08:24:37Z</time>
      </trkpt>
      <trkpt lat="45.63546" lon="6.03017">
        <ele>1513.25</ele>
        <time>2018-07-01T08:26:09Z</time>
      </trkpt>
      <trkpt lat="45.63541" lon="6.03048">
        <ele>1527.19</ele>
        <time>2018-07-01T08:27:23Z</time>
      </trkpt>
      <trkpt lat="45.63561" lon="6.03058">
        <ele>1538.25</ele>
        <time>2018-07-01T08:28:32Z</time>
      </trkpt>
      <trkpt lat="45.63581" lon="6.03072">
        <ele>1544.98</ele>
        <time>2018-07-01T08:29:14Z</time>
      </trkpt>
      <trkpt lat="45.63598" lon="6.03092">
        <ele>1549.78</ele>
        <time>2018-07-01T08:29:50Z</time>
      </trkpt>
      <trkpt lat="45.63619" lon="6.03108">
        <ele>1554.59</ele>
        <time>2018-07-01T08:30:29Z</time>
      </trkpt>
      <trkpt lat="45.63627" lon="6.03133">
        <ele>1565.64</ele>
        <time>2018-07-01T08:31:34Z</time>
      </trkpt>
      <trkpt lat="45.6364" lon="6.03154">
        <ele>1576.22</ele>
        <time>2018-07-01T08:32:42Z</time>
      </trkpt>
      <trkpt lat="45.63638" lon="6.03181">
        <ele>1587.27</ele>
        <time>2018-07-01T08:33:51Z</time>
      </trkpt>
      <trkpt lat="45.63642" lon="6.03206">
        <ele>1597.37</ele>
        <time>2018-07-01T08:36:34Z</time>
      </trkpt>
      <trkpt lat="45.63655" lon="6.0323">
        <ele>1609.38</ele>
        <time>2018-07-01T08:37:44Z</time>
      </trkpt>
      <trkpt lat="45.63655" lon="6.03255">
        <ele>1621.4</ele>
        <time>2018-07-01T08:38:58Z</time>
      </trkpt>
      <trkpt lat="45.63669" lon="6.03282">
        <ele>1634.86</ele>
        <time>2018-07-01T08:40:29Z</time>
      </trkpt>
      <trkpt lat="45.63683" lon="6.03305">
        <ele>1646.88</ele>
        <time>2018-07-01T08:41:50Z</time>
      </trkpt>
      <trkpt lat="45.63687" lon="6.03332">
        <ele>1658.41</ele>
        <time>2018-07-01T08:43:01Z</time>
      </trkpt>
      <trkpt lat="45.63697" lon="6.03362">
        <ele>1673.31</ele>
        <time>2018-07-01T08:44:19Z</time>
      </trkpt>
      <trkpt lat="45.63702" lon="6.03388">
        <ele>1686.29</ele>
        <time>2018-07-01T08:46:02Z</time>
      </trkpt>
      <trkpt lat="45.63716" lon="6.03417">
        <ele>1699.75</ele>
        <time>2018-07-01T08:47:21Z</time>
      </trkpt>
      <trkpt lat="45.63727" lon="6.03443">
        <ele>1711.76</ele>
        <time>2018-07-01T08:48:41Z</time>
      </trkpt>
      <trkpt lat="45.6374" lon="6.03468">
        <ele>1726.18</ele>
        <time>2018-07-01T08:50:05Z</time>
      </trkpt>
      <trkpt lat="45.63742" lon="6.03495">
        <ele>1736.28</ele>
        <time>2018-07-01T08:51:42Z</time>
      </trkpt>
      <trkpt lat="45.63735" lon="6.03499">
        <ele>1742.05</ele>
        <time>2018-07-01T08:56:50Z</time>
      </trkpt>
      <trkpt lat="45.63707" lon="6.03488">
        <ele>1742.05</ele>
        <time>2018-07-01T08:57:26Z</time>
      </trkpt>
      <trkpt lat="45.63681" lon="6.03481">
        <ele>1742.53</ele>
        <time>2018-07-01T08:57:55Z</time>
      </trkpt>
      <trkpt lat="45.63668" lon="6.03497">
        <ele>1753.1</ele>
        <time>2018-07-01T08:59:20Z</time>
      </trkpt>
      <trkpt lat="45.63663" lon="6.03511">
        <ele>1768.96</ele>
        <time>2018-07-01T09:01:03Z</time>
      </trkpt>
      <trkpt lat="45.63665" lon="6.03522">
        <ele>1773.77</ele>
        <time>2018-07-01T09:03:19Z</time>
      </trkpt>
      <trkpt lat="45.63668" lon="6.03534">
        <ele>1787.23</ele>
        <time>2018-07-01T09:07:38Z</time>
      </trkpt>
      <trkpt lat="45.63662" lon="6.03543">
        <ele>1785.79</ele>
        <time>2018-07-01T09:10:22Z</time>
      </trkpt>
      <trkpt lat="45.63667" lon="6.03539">
        <ele>1798.76</ele>
        <time>2018-07-01T09:12:22Z</time>
      </trkpt>
      <trkpt lat="45.63688" lon="6.03543">
        <ele>1810.3</ele>
        <time>2018-07-01T09:17:26Z</time>
      </trkpt>
      <trkpt lat="45.63688" lon="6.03559">
        <ele>1809.34</ele>
        <time>2018-07-01T09:18:24Z</time>
      </trkpt>
      <trkpt lat="45.63683" lon="6.03541">
        <ele>1809.34</ele>
        <time>2018-07-01T09:20:44Z</time>
      </trkpt>
      <trkpt lat="45.63728" lon="6.0352">
        <ele>1809.34</ele>
        <time>2018-07-01T09:21:13Z</time>
      </trkpt>
      <trkpt lat="45.63717" lon="6.0352">
        <ele>1809.34</ele>
        <time>2018-07-01T09:21:58Z</time>
      </trkpt>
      <trkpt lat="45.63693" lon="6.03534">
        <ele>1809.34</ele>
        <time>2018-07-01T09:22:22Z</time>
      </trkpt>
      <trkpt lat="45.63689" lon="6.03575">
        <ele>1808.86</ele>
        <time>2018-07-01T09:24:17Z</time>
      </trkpt>
      <trkpt lat="45.63674" lon="6.03555">
        <ele>1810.78</ele>
        <time>2018-07-01T09:24:58Z</time>
      </trkpt>
      <trkpt lat="45.63687" lon="6.03547">
        <ele>1812.7</ele>
        <time>2018-07-01T09:25:42Z</time>
      </trkpt>
      <trkpt lat="45.637" lon="6.03569">
        <ele>1813.18</ele>
        <time>2018-07-01T09:27:03Z</time>
      </trkpt>
      <trkpt lat="45.63699" lon="6.03577">
        <ele>1814.63</ele>
        <time>2018-07-01T09:31:43Z</time>
      </trkpt>
      <trkpt lat="45.63724" lon="6.03584">
        <ele>1817.99</ele>
        <time>2018-07-01T09:32:52Z</time>
      </trkpt>
      <trkpt lat="45.63743" lon="6.03591">
        <ele>1820.39</ele>
        <time>2018-07-01T09:34:04Z</time>
      </trkpt>
      <trkpt lat="45.63716" lon="6.03583">
        <ele>1817.51</ele>
        <time>2018-07-01T09:35:00Z</time>
      </trkpt>
      <trkpt lat="45.63699" lon="6.0357">
        <ele>1815.59</ele>
        <time>2018-07-01T09:35:38Z</time>
      </trkpt>
      <trkpt lat="45.63698" lon="6.03545">
        <ele>1819.91</ele>
        <time>2018-07-01T09:36:52Z</time>
      </trkpt>
      <trkpt lat="45.63715" lon="6.03535">
        <ele>1830.97</ele>
        <time>2018-07-01T09:38:08Z</time>
      </trkpt>
      <trkpt lat="45.63725" lon="6.03539">
        <ele>1830.97</ele>
        <time>2018-07-01T09:44:09Z</time>
      </trkpt>
      <trkpt lat="45.63727" lon="6.03541">
        <ele>1833.85</ele>
        <time>2018-07-01T09:57:08Z</time>
      </trkpt>
      <trkpt lat="45.63728" lon="6.03541">
        <ele>1835.77</ele>
        <time>2018-07-01T10:09:07Z</time>
      </trkpt>
      <trkpt lat="45.63711" lon="6.0354">
        <ele>1832.41</ele>
        <time>2018-07-01T10:12:46Z</time>
      </trkpt>
      <trkpt lat="45.637" lon="6.03556">
        <ele>1823.28</ele>
        <time>2018-07-01T10:14:02Z</time>
      </trkpt>
      <trkpt lat="45.63679" lon="6.03572">
        <ele>1818.47</ele>
        <time>2018-07-01T10:15:08Z</time>
      </trkpt>
      <trkpt lat="45.63647" lon="6.03549">
        <ele>1817.03</ele>
        <time>2018-07-01T10:15:39Z</time>
      </trkpt>
      <trkpt lat="45.63622" lon="6.03524">
        <ele>1820.39</ele>
        <time>2018-07-01T10:16:09Z</time>
      </trkpt>
      <trkpt lat="45.636" lon="6.035">
        <ele>1826.16</ele>
        <time>2018-07-01T10:16:51Z</time>
      </trkpt>
      <trkpt lat="45.63581" lon="6.03483">
        <ele>1829.05</ele>
        <time>2018-07-01T10:17:26Z</time>
      </trkpt>
      <trkpt lat="45.6356" lon="6.03465">
        <ele>1830.01</ele>
        <time>2018-07-01T10:18:09Z</time>
      </trkpt>
      <trkpt lat="45.63531" lon="6.03443">
        <ele>1831.93</ele>
        <time>2018-07-01T10:18:46Z</time>
      </trkpt>
      <trkpt lat="45.63506" lon="6.03431">
        <ele>1831.45</ele>
        <time>2018-07-01T10:19:35Z</time>
      </trkpt>
      <trkpt lat="45.63466" lon="6.03406">
        <ele>1833.85</ele>
        <time>2018-07-01T10:20:10Z</time>
      </trkpt>
      <trkpt lat="45.63444" lon="6.03397">
        <ele>1829.53</ele>
        <time>2018-07-01T10:20:32Z</time>
      </trkpt>
      <trkpt lat="45.63409" lon="6.0339">
        <ele>1823.28</ele>
        <time>2018-07-01T10:21:14Z</time>
      </trkpt>
      <trkpt lat="45.63374" lon="6.03392">
        <ele>1820.87</ele>
        <time>2018-07-01T10:21:48Z</time>
      </trkpt>
      <trkpt lat="45.63339" lon="6.03404">
        <ele>1816.55</ele>
        <time>2018-07-01T10:22:26Z</time>
      </trkpt>
      <trkpt lat="45.63314" lon="6.03413">
        <ele>1808.86</ele>
        <time>2018-07-01T10:23:02Z</time>
      </trkpt>
      <trkpt lat="45.63291" lon="6.03406">
        <ele>1803.57</ele>
        <time>2018-07-01T10:23:30Z</time>
      </trkpt>
      <trkpt lat="45.63256" lon="6.03401">
        <ele>1800.21</ele>
        <time>2018-07-01T10:24:05Z</time>
      </trkpt>
      <trkpt lat="45.63233" lon="6.0339">
        <ele>1802.13</ele>
        <time>2018-07-01T10:24:31Z</time>
      </trkpt>
      <trkpt lat="45.63198" lon="6.03376">
        <ele>1800.21</ele>
        <time>2018-07-01T10:25:06Z</time>
      </trkpt>
      <trkpt lat="45.63169" lon="6.0337">
        <ele>1797.8</ele>
        <time>2018-07-01T10:25:36Z</time>
      </trkpt>
      <trkpt lat="45.6313" lon="6.03373">
        <ele>1797.8</ele>
        <time>2018-07-01T10:26:13Z</time>
      </trkpt>
      <trkpt lat="45.63104" lon="6.03387">
        <ele>1797.8</ele>
        <time>2018-07-01T10:26:42Z</time>
      </trkpt>
      <trkpt lat="45.63081" lon="6.03398">
        <ele>1799.24</ele>
        <time>2018-07-01T10:27:06Z</time>
      </trkpt>
      <trkpt lat="45.63058" lon="6.03408">
        <ele>1803.09</ele>
        <time>2018-07-01T10:27:35Z</time>
      </trkpt>
      <trkpt lat="45.63035" lon="6.03419">
        <ele>1805.01</ele>
        <time>2018-07-01T10:28:29Z</time>
      </trkpt>
      <trkpt lat="45.63019" lon="6.03443">
        <ele>1802.61</ele>
        <time>2018-07-01T10:28:57Z</time>
      </trkpt>
      <trkpt lat="45.63023" lon="6.03479">
        <ele>1797.8</ele>
        <time>2018-07-01T10:29:27Z</time>
      </trkpt>
      <trkpt lat="45.6303" lon="6.03517">
        <ele>1793.96</ele>
        <time>2018-07-01T10:29:56Z</time>
      </trkpt>
      <trkpt lat="45.63023" lon="6.03551">
        <ele>1792.52</ele>
        <time>2018-07-01T10:30:27Z</time>
      </trkpt>
      <trkpt lat="45.63013" lon="6.0359">
        <ele>1790.59</ele>
        <time>2018-07-01T10:30:54Z</time>
      </trkpt>
      <trkpt lat="45.63003" lon="6.0364">
        <ele>1788.19</ele>
        <time>2018-07-01T10:31:28Z</time>
      </trkpt>
      <trkpt lat="45.62997" lon="6.03689">
        <ele>1783.86</ele>
        <time>2018-07-01T10:32:08Z</time>
      </trkpt>
      <trkpt lat="45.63007" lon="6.03723">
        <ele>1779.54</ele>
        <time>2018-07-01T10:32:37Z</time>
      </trkpt>
      <trkpt lat="45.6302" lon="6.03753">
        <ele>1776.65</ele>
        <time>2018-07-01T10:33:28Z</time>
      </trkpt>
      <trkpt lat="45.63035" lon="6.03783">
        <ele>1773.29</ele>
        <time>2018-07-01T10:33:51Z</time>
      </trkpt>
      <trkpt lat="45.63054" lon="6.03814">
        <ele>1767.52</ele>
        <time>2018-07-01T10:34:24Z</time>
      </trkpt>
      <trkpt lat="45.63052" lon="6.03847">
        <ele>1765.6</ele>
        <time>2018-07-01T10:34:47Z</time>
      </trkpt>
      <trkpt lat="45.63052" lon="6.03892">
        <ele>1762.23</ele>
        <time>2018-07-01T10:35:21Z</time>
      </trkpt>
      <trkpt lat="45.63047" lon="6.03931">
        <ele>1757.91</ele>
        <time>2018-07-01T10:35:48Z</time>
      </trkpt>
      <trkpt lat="45.63038" lon="6.03964">
        <ele>1754.54</ele>
        <time>2018-07-01T10:36:12Z</time>
      </trkpt>
      <trkpt lat="45.63024" lon="6.03998">
        <ele>1751.66</ele>
        <time>2018-07-01T10:36:39Z</time>
      </trkpt>
      <trkpt lat="45.63003" lon="6.04026">
        <ele>1751.66</ele>
        <time>2018-07-01T10:37:13Z</time>
      </trkpt>
      <trkpt lat="45.62992" lon="6.04076">
        <ele>1750.7</ele>
        <time>2018-07-01T10:38:31Z</time>
      </trkpt>
      <trkpt lat="45.62972" lon="6.04095">
        <ele>1750.7</ele>
        <time>2018-07-01T10:38:54Z</time>
      </trkpt>
      <trkpt lat="45.62949" lon="6.04096">
        <ele>1752.62</ele>
        <time>2018-07-01T10:39:28Z</time>
      </trkpt>
      <trkpt lat="45.62952" lon="6.04134">
        <ele>1753.58</ele>
        <time>2018-07-01T10:40:39Z</time>
      </trkpt>
      <trkpt lat="45.62931" lon="6.04158">
        <ele>1749.74</ele>
        <time>2018-07-01T10:41:10Z</time>
      </trkpt>
      <trkpt lat="45.62919" lon="6.04186">
        <ele>1746.37</ele>
        <time>2018-07-01T10:41:41Z</time>
      </trkpt>
      <trkpt lat="45.6292" lon="6.0422">
        <ele>1740.6</ele>
        <time>2018-07-01T10:42:08Z</time>
      </trkpt>
      <trkpt lat="45.62916" lon="6.04262">
        <ele>1737.72</ele>
        <time>2018-07-01T10:42:41Z</time>
      </trkpt>
      <trkpt lat="45.62913" lon="6.04297">
        <ele>1731.95</ele>
        <time>2018-07-01T10:43:23Z</time>
      </trkpt>
      <trkpt lat="45.62916" lon="6.04342">
        <ele>1727.15</ele>
        <time>2018-07-01T10:44:07Z</time>
      </trkpt>
      <trkpt lat="45.62909" lon="6.04385">
        <ele>1721.38</ele>
        <time>2018-07-01T10:44:43Z</time>
      </trkpt>
      <trkpt lat="45.62908" lon="6.04424">
        <ele>1716.57</ele>
        <time>2018-07-01T10:45:12Z</time>
      </trkpt>
      <trkpt lat="45.62894" lon="6.04453">
        <ele>1718.01</ele>
        <time>2018-07-01T10:45:43Z</time>
      </trkpt>
      <trkpt lat="45.62882" lon="6.04484">
        <ele>1713.21</ele>
        <time>2018-07-01T10:46:27Z</time>
      </trkpt>
      <trkpt lat="45.62866" lon="6.04517">
        <ele>1708.88</ele>
        <time>2018-07-01T10:47:22Z</time>
      </trkpt>
      <trkpt lat="45.6285" lon="6.0454">
        <ele>1704.07</ele>
        <time>2018-07-01T10:47:54Z</time>
      </trkpt>
      <trkpt lat="45.62832" lon="6.04561">
        <ele>1701.67</ele>
        <time>2018-07-01T10:48:58Z</time>
      </trkpt>
      <trkpt lat="45.6281" lon="6.046">
        <ele>1693.02</ele>
        <time>2018-07-01T10:49:39Z</time>
      </trkpt>
      <trkpt lat="45.6279" lon="6.04631">
        <ele>1686.77</ele>
        <time>2018-07-01T10:50:11Z</time>
      </trkpt>
      <trkpt lat="45.62768" lon="6.04652">
        <ele>1681.96</ele>
        <time>2018-07-01T10:50:36Z</time>
      </trkpt>
      <trkpt lat="45.62742" lon="6.04689">
        <ele>1674.75</ele>
        <time>2018-07-01T10:51:12Z</time>
      </trkpt>
      <trkpt lat="45.6272" lon="6.04724">
        <ele>1668.99</ele>
        <time>2018-07-01T10:51:41Z</time>
      </trkpt>
      <trkpt lat="45.62703" lon="6.04753">
        <ele>1665.14</ele>
        <time>2018-07-01T10:52:06Z</time>
      </trkpt>
      <trkpt lat="45.62681" lon="6.04766">
        <ele>1663.22</ele>
        <time>2018-07-01T10:52:29Z</time>
      </trkpt>
      <trkpt lat="45.62645" lon="6.04783">
        <ele>1658.89</ele>
        <time>2018-07-01T10:53:02Z</time>
      </trkpt>
      <trkpt lat="45.62616" lon="6.04806">
        <ele>1658.41</ele>
        <time>2018-07-01T10:53:31Z</time>
      </trkpt>
      <trkpt lat="45.62591" lon="6.04827">
        <ele>1655.53</ele>
        <time>2018-07-01T10:54:01Z</time>
      </trkpt>
      <trkpt lat="45.6257" lon="6.04861">
        <ele>1650.24</ele>
        <time>2018-07-01T10:54:32Z</time>
      </trkpt>
      <trkpt lat="45.62553" lon="6.0489">
        <ele>1647.84</ele>
        <time>2018-07-01T10:54:56Z</time>
      </trkpt>
      <trkpt lat="45.62533" lon="6.04923">
        <ele>1646.88</ele>
        <time>2018-07-01T10:55:24Z</time>
      </trkpt>
      <trkpt lat="45.62513" lon="6.04954">
        <ele>1645.91</ele>
        <time>2018-07-01T10:55:56Z</time>
      </trkpt>
      <trkpt lat="45.62496" lon="6.0498">
        <ele>1642.07</ele>
        <time>2018-07-01T10:56:19Z</time>
      </trkpt>
      <trkpt lat="45.62469" lon="6.05016">
        <ele>1640.63</ele>
        <time>2018-07-01T10:56:53Z</time>
      </trkpt>
      <trkpt lat="45.62449" lon="6.05051">
        <ele>1636.3</ele>
        <time>2018-07-01T10:57:25Z</time>
      </trkpt>
      <trkpt lat="45.62425" lon="6.0508">
        <ele>1631.98</ele>
        <time>2018-07-01T10:58:03Z</time>
      </trkpt>
      <trkpt lat="45.62401" lon="6.05102">
        <ele>1625.73</ele>
        <time>2018-07-01T10:58:48Z</time>
      </trkpt>
      <trkpt lat="45.62374" lon="6.051">
        <ele>1617.56</ele>
        <time>2018-07-01T10:59:24Z</time>
      </trkpt>
      <trkpt lat="45.62345" lon="6.05099">
        <ele>1611.79</ele>
        <time>2018-07-01T10:59:56Z</time>
      </trkpt>
      <trkpt lat="45.62336" lon="6.05128">
        <ele>1605.54</ele>
        <time>2018-07-01T11:01:10Z</time>
      </trkpt>
      <trkpt lat="45.62345" lon="6.05159">
        <ele>1600.73</ele>
        <time>2018-07-01T11:01:43Z</time>
      </trkpt>
      <trkpt lat="45.62344" lon="6.05198">
        <ele>1597.37</ele>
        <time>2018-07-01T11:02:14Z</time>
      </trkpt>
      <trkpt lat="45.62339" lon="6.05236">
        <ele>1592.56</ele>
        <time>2018-07-01T11:02:46Z</time>
      </trkpt>
      <trkpt lat="45.62331" lon="6.05269">
        <ele>1588.72</ele>
        <time>2018-07-01T11:03:13Z</time>
      </trkpt>
      <trkpt lat="45.6232" lon="6.05302">
        <ele>1586.79</ele>
        <time>2018-07-01T11:03:42Z</time>
      </trkpt>
      <trkpt lat="45.62309" lon="6.05336">
        <ele>1581.03</ele>
        <time>2018-07-01T11:04:14Z</time>
      </trkpt>
      <trkpt lat="45.62295" lon="6.05371">
        <ele>1575.74</ele>
        <time>2018-07-01T11:04:46Z</time>
      </trkpt>
      <trkpt lat="45.62286" lon="6.05403">
        <ele>1570.93</ele>
        <time>2018-07-01T11:05:16Z</time>
      </trkpt>
      <trkpt lat="45.62269" lon="6.0543">
        <ele>1563.72</ele>
        <time>2018-07-01T11:05:56Z</time>
      </trkpt>
      <trkpt lat="45.62246" lon="6.05405">
        <ele>1555.55</ele>
        <time>2018-07-01T11:06:55Z</time>
      </trkpt>
      <trkpt lat="45.62231" lon="6.05382">
        <ele>1548.34</ele>
        <time>2018-07-01T11:07:29Z</time>
      </trkpt>
      <trkpt lat="45.62212" lon="6.05359">
        <ele>1539.69</ele>
        <time>2018-07-01T11:08:16Z</time>
      </trkpt>
      <trkpt lat="45.62194" lon="6.05339">
        <ele>1534.4</ele>
        <time>2018-07-01T11:08:43Z</time>
      </trkpt>
      <trkpt lat="45.62173" lon="6.05325">
        <ele>1532</ele>
        <time>2018-07-01T11:09:06Z</time>
      </trkpt>
      <trkpt lat="45.62144" lon="6.05306">
        <ele>1526.71</ele>
        <time>2018-07-01T11:09:44Z</time>
      </trkpt>
      <trkpt lat="45.62132" lon="6.05282">
        <ele>1524.79</ele>
        <time>2018-07-01T11:11:18Z</time>
      </trkpt>
      <trkpt lat="45.62129" lon="6.05282">
        <ele>1526.71</ele>
        <time>2018-07-01T11:14:03Z</time>
      </trkpt>
      <trkpt lat="45.62099" lon="6.05253">
        <ele>1528.63</ele>
        <time>2018-07-01T11:14:46Z</time>
      </trkpt>
      <trkpt lat="45.62098" lon="6.05219">
        <ele>1520.46</ele>
        <time>2018-07-01T11:15:35Z</time>
      </trkpt>
      <trkpt lat="45.62085" lon="6.05194">
        <ele>1505.56</ele>
        <time>2018-07-01T11:16:40Z</time>
      </trkpt>
      <trkpt lat="45.62061" lon="6.05183">
        <ele>1495.47</ele>
        <time>2018-07-01T11:17:34Z</time>
      </trkpt>
      <trkpt lat="45.62038" lon="6.05186">
        <ele>1485.85</ele>
        <time>2018-07-01T11:18:23Z</time>
      </trkpt>
      <trkpt lat="45.62012" lon="6.05198">
        <ele>1480.57</ele>
        <time>2018-07-01T11:18:59Z</time>
      </trkpt>
      <trkpt lat="45.61981" lon="6.05199">
        <ele>1477.68</ele>
        <time>2018-07-01T11:19:24Z</time>
      </trkpt>
      <trkpt lat="45.61957" lon="6.052">
        <ele>1470.47</ele>
        <time>2018-07-01T11:19:57Z</time>
      </trkpt>
      <trkpt lat="45.61929" lon="6.05207">
        <ele>1462.3</ele>
        <time>2018-07-01T11:20:36Z</time>
      </trkpt>
      <trkpt lat="45.61905" lon="6.05206">
        <ele>1451.25</ele>
        <time>2018-07-01T11:21:23Z</time>
      </trkpt>
      <trkpt lat="45.61879" lon="6.05199">
        <ele>1441.63</ele>
        <time>2018-07-01T11:22:05Z</time>
      </trkpt>
      <trkpt lat="45.61856" lon="6.05205">
        <ele>1433.46</ele>
        <time>2018-07-01T11:22:44Z</time>
      </trkpt>
      <trkpt lat="45.61828" lon="6.05201">
        <ele>1425.29</ele>
        <time>2018-07-01T11:23:25Z</time>
      </trkpt>
      <trkpt lat="45.61805" lon="6.05182">
        <ele>1414.24</ele>
        <time>2018-07-01T11:24:11Z</time>
      </trkpt>
      <trkpt lat="45.61789" lon="6.05159">
        <ele>1404.14</ele>
        <time>2018-07-01T11:24:46Z</time>
      </trkpt>
      <trkpt lat="45.61762" lon="6.05146">
        <ele>1395.49</ele>
        <time>2018-07-01T11:25:33Z</time>
      </trkpt>
      <trkpt lat="45.61743" lon="6.05145">
        <ele>1388.28</ele>
        <time>2018-07-01T11:26:57Z</time>
      </trkpt>
      <trkpt lat="45.61735" lon="6.05112">
        <ele>1379.63</ele>
        <time>2018-07-01T11:27:34Z</time>
      </trkpt>
      <trkpt lat="45.61711" lon="6.05128">
        <ele>1369.05</ele>
        <time>2018-07-01T11:28:19Z</time>
      </trkpt>
      <trkpt lat="45.61685" lon="6.05135">
        <ele>1365.69</ele>
        <time>2018-07-01T11:28:46Z</time>
      </trkpt>
      <trkpt lat="45.61657" lon="6.05141">
        <ele>1363.77</ele>
        <time>2018-07-01T11:29:17Z</time>
      </trkpt>
      <trkpt lat="45.61635" lon="6.05126">
        <ele>1356.56</ele>
        <time>2018-07-01T11:29:56Z</time>
      </trkpt>
      <trkpt lat="45.61618" lon="6.05104">
        <ele>1348.87</ele>
        <time>2018-07-01T11:30:36Z</time>
      </trkpt>
      <trkpt lat="45.61596" lon="6.05086">
        <ele>1342.14</ele>
        <time>2018-07-01T11:31:11Z</time>
      </trkpt>
      <trkpt lat="45.61573" lon="6.0507">
        <ele>1336.85</ele>
        <time>2018-07-01T11:31:45Z</time>
      </trkpt>
      <trkpt lat="45.61548" lon="6.05052">
        <ele>1327.24</ele>
        <time>2018-07-01T11:32:36Z</time>
      </trkpt>
      <trkpt lat="45.61528" lon="6.05053">
        <ele>1316.66</ele>
        <time>2018-07-01T11:33:36Z</time>
      </trkpt>
      <trkpt lat="45.6151" lon="6.0503">
        <ele>1303.2</ele>
        <time>2018-07-01T11:34:35Z</time>
      </trkpt>
      <trkpt lat="45.6149" lon="6.05001">
        <ele>1293.59</ele>
        <time>2018-07-01T11:35:23Z</time>
      </trkpt>
      <trkpt lat="45.61464" lon="6.04982">
        <ele>1285.42</ele>
        <time>2018-07-01T11:36:05Z</time>
      </trkpt>
      <trkpt lat="45.61449" lon="6.04953">
        <ele>1277.25</ele>
        <time>2018-07-01T11:36:43Z</time>
      </trkpt>
      <trkpt lat="45.61431" lon="6.04934">
        <ele>1265.71</ele>
        <time>2018-07-01T11:37:36Z</time>
      </trkpt>
      <trkpt lat="45.61439" lon="6.04904">
        <ele>1257.06</ele>
        <time>2018-07-01T11:38:15Z</time>
      </trkpt>
      <trkpt lat="45.61438" lon="6.04868">
        <ele>1245.53</ele>
        <time>2018-07-01T11:39:05Z</time>
      </trkpt>
      <trkpt lat="45.61431" lon="6.04842">
        <ele>1235.43</ele>
        <time>2018-07-01T11:39:56Z</time>
      </trkpt>
      <trkpt lat="45.6144" lon="6.04814">
        <ele>1228.7</ele>
        <time>2018-07-01T11:40:37Z</time>
      </trkpt>
      <trkpt lat="45.61446" lon="6.04797">
        <ele>1225.82</ele>
        <time>2018-07-01T11:41:21Z</time>
      </trkpt>
      <trkpt lat="45.61415" lon="6.04812">
        <ele>1219.57</ele>
        <time>2018-07-01T11:42:14Z</time>
      </trkpt>
      <trkpt lat="45.6139" lon="6.0481">
        <ele>1217.17</ele>
        <time>2018-07-01T11:42:40Z</time>
      </trkpt>
      <trkpt lat="45.61355" lon="6.04806">
        <ele>1209.48</ele>
        <time>2018-07-01T11:43:25Z</time>
      </trkpt>
      <trkpt lat="45.61332" lon="6.04799">
        <ele>1204.67</ele>
        <time>2018-07-01T11:43:50Z</time>
      </trkpt>
      <trkpt lat="45.61308" lon="6.04787">
        <ele>1202.75</ele>
        <time>2018-07-01T11:44:40Z</time>
      </trkpt>
      <trkpt lat="45.61288" lon="6.04771">
        <ele>1199.86</ele>
        <time>2018-07-01T11:46:21Z</time>
      </trkpt>
      <trkpt lat="45.61276" lon="6.04742">
        <ele>1194.09</ele>
        <time>2018-07-01T11:48:17Z</time>
      </trkpt>
      <trkpt lat="45.61265" lon="6.04698">
        <ele>1183.04</ele>
        <time>2018-07-01T11:49:11Z</time>
      </trkpt>
      <trkpt lat="45.61252" lon="6.04665">
        <ele>1174.39</ele>
        <time>2018-07-01T11:49:47Z</time>
      </trkpt>
      <trkpt lat="45.61242" lon="6.04626">
        <ele>1164.77</ele>
        <time>2018-07-01T11:50:24Z</time>
      </trkpt>
      <trkpt lat="45.61243" lon="6.04592">
        <ele>1155.64</ele>
        <time>2018-07-01T11:51:01Z</time>
      </trkpt>
      <trkpt lat="45.61245" lon="6.04558">
        <ele>1146.03</ele>
        <time>2018-07-01T11:51:37Z</time>
      </trkpt>
      <trkpt lat="45.61249" lon="6.04525">
        <ele>1137.86</ele>
        <time>2018-07-01T11:52:13Z</time>
      </trkpt>
      <trkpt lat="45.61249" lon="6.04491">
        <ele>1129.21</ele>
        <time>2018-07-01T11:52:52Z</time>
      </trkpt>
      <trkpt lat="45.6125" lon="6.04452">
        <ele>1119.59</ele>
        <time>2018-07-01T11:53:31Z</time>
      </trkpt>
      <trkpt lat="45.61257" lon="6.04418">
        <ele>1109.5</ele>
        <time>2018-07-01T11:54:09Z</time>
      </trkpt>
      <trkpt lat="45.61263" lon="6.04382">
        <ele>1098.92</ele>
        <time>2018-07-01T11:54:56Z</time>
      </trkpt>
      <trkpt lat="45.61275" lon="6.04348">
        <ele>1090.75</ele>
        <time>2018-07-01T11:55:34Z</time>
      </trkpt>
      <trkpt lat="45.61293" lon="6.04321">
        <ele>1089.31</ele>
        <time>2018-07-01T11:56:04Z</time>
      </trkpt>
      <trkpt lat="45.61278" lon="6.0429">
        <ele>1081.14</ele>
        <time>2018-07-01T11:57:40Z</time>
      </trkpt>
      <trkpt lat="45.61277" lon="6.04253">
        <ele>1074.41</ele>
        <time>2018-07-01T11:58:19Z</time>
      </trkpt>
      <trkpt lat="45.61268" lon="6.0423">
        <ele>1073.45</ele>
        <time>2018-07-01T11:59:37Z</time>
      </trkpt>
      <trkpt lat="45.61298" lon="6.0421">
        <ele>1061.43</ele>
        <time>2018-07-01T12:00:37Z</time>
      </trkpt>
      <trkpt lat="45.61319" lon="6.04194">
        <ele>1054.7</ele>
        <time>2018-07-01T12:01:40Z</time>
      </trkpt>
      <trkpt lat="45.61333" lon="6.04193">
        <ele>1044.13</ele>
        <time>2018-07-01T12:03:22Z</time>
      </trkpt>
      <trkpt lat="45.61353" lon="6.04198">
        <ele>1034.04</ele>
        <time>2018-07-01T12:04:36Z</time>
      </trkpt>
      <trkpt lat="45.61374" lon="6.04191">
        <ele>1021.54</ele>
        <time>2018-07-01T12:05:44Z</time>
      </trkpt>
      <trkpt lat="45.61383" lon="6.04175">
        <ele>1010</ele>
        <time>2018-07-01T12:07:06Z</time>
      </trkpt>
      <trkpt lat="45.61393" lon="6.04144">
        <ele>1000.87</ele>
        <time>2018-07-01T12:08:15Z</time>
      </trkpt>
      <trkpt lat="45.61408" lon="6.04121">
        <ele>1000.39</ele>
        <time>2018-07-01T12:09:39Z</time>
      </trkpt>
      <trkpt lat="45.61411" lon="6.04079">
        <ele>998.47</ele>
        <time>2018-07-01T12:10:24Z</time>
      </trkpt>
      <trkpt lat="45.61418" lon="6.04047">
        <ele>998.95</ele>
        <time>2018-07-01T12:10:54Z</time>
      </trkpt>
      <trkpt lat="45.6144" lon="6.04023">
        <ele>1001.83</ele>
        <time>2018-07-01T12:11:16Z</time>
      </trkpt>
      <trkpt lat="45.61461" lon="6.04015">
        <ele>1002.79</ele>
        <time>2018-07-01T12:11:38Z</time>
      </trkpt>
      <trkpt lat="45.61483" lon="6.04045">
        <ele>1004.72</ele>
        <time>2018-07-01T12:12:03Z</time>
      </trkpt>
      <trkpt lat="45.615" lon="6.04067">
        <ele>1005.2</ele>
        <time>2018-07-01T12:12:18Z</time>
      </trkpt>
      <trkpt lat="45.61514" lon="6.04093">
        <ele>1006.64</ele>
        <time>2018-07-01T12:12:41Z</time>
      </trkpt>
      <trkpt lat="45.61532" lon="6.04123">
        <ele>1007.12</ele>
        <time>2018-07-01T12:13:04Z</time>
      </trkpt>
      <trkpt lat="45.6155" lon="6.04153">
        <ele>1009.52</ele>
        <time>2018-07-01T12:13:40Z</time>
      </trkpt>
      <trkpt lat="45.61568" lon="6.04176">
        <ele>1011.44</ele>
        <time>2018-07-01T12:14:13Z</time>
      </trkpt>
      <trkpt lat="45.61575" lon="6.04167">
        <ele>1013.85</ele>
        <time>2018-07-01T12:14:58Z</time>
      </trkpt>
      <trkpt lat="45.6158" lon="6.04134">
        <ele>1015.77</ele>
        <time>2018-07-01T12:15:18Z</time>
      </trkpt>
      <trkpt lat="45.61593" lon="6.04088">
        <ele>1020.1</ele>
        <time>2018-07-01T12:15:46Z</time>
      </trkpt>
      <trkpt lat="45.61615" lon="6.04067">
        <ele>1022.5</ele>
        <time>2018-07-01T12:16:11Z</time>
      </trkpt>
      <trkpt lat="45.61649" lon="6.04075">
        <ele>1023.94</ele>
        <time>2018-07-01T12:16:43Z</time>
      </trkpt>
      <trkpt lat="45.61671" lon="6.04086">
        <ele>1025.86</ele>
        <time>2018-07-01T12:17:08Z</time>
      </trkpt>
      <trkpt lat="45.61693" lon="6.04096">
        <ele>1027.79</ele>
        <time>2018-07-01T12:17:29Z</time>
      </trkpt>
      <trkpt lat="45.61718" lon="6.04109">
        <ele>1030.19</ele>
        <time>2018-07-01T12:17:54Z</time>
      </trkpt>
      <trkpt lat="45.61714" lon="6.04094">
        <ele>1033.55</ele>
        <time>2018-07-01T12:18:44Z</time>
      </trkpt>
      <trkpt lat="45.61703" lon="6.04066">
        <ele>1036.92</ele>
        <time>2018-07-01T12:19:32Z</time>
      </trkpt>
      <trkpt lat="45.61715" lon="6.04019">
        <ele>1038.84</ele>
        <time>2018-07-01T12:20:03Z</time>
      </trkpt>
      <trkpt lat="45.61748" lon="6.03993">
        <ele>1041.25</ele>
        <time>2018-07-01T12:20:40Z</time>
      </trkpt>
      <trkpt lat="45.61772" lon="6.03992">
        <ele>1043.17</ele>
        <time>2018-07-01T12:21:05Z</time>
      </trkpt>
      <trkpt lat="45.61792" lon="6.03978">
        <ele>1045.57</ele>
        <time>2018-07-01T12:21:40Z</time>
      </trkpt>
      <trkpt lat="45.61811" lon="6.03941">
        <ele>1047.01</ele>
        <time>2018-07-01T12:22:20Z</time>
      </trkpt>
      <trkpt lat="45.61837" lon="6.03927">
        <ele>1047.97</ele>
        <time>2018-07-01T12:22:44Z</time>
      </trkpt>
      <trkpt lat="45.61866" lon="6.03943">
        <ele>1049.9</ele>
        <time>2018-07-01T12:23:22Z</time>
      </trkpt>
      <trkpt lat="45.6189" lon="6.03956">
        <ele>1049.9</ele>
        <time>2018-07-01T12:23:46Z</time>
      </trkpt>
      <trkpt lat="45.61905" lon="6.0395">
        <ele>1047.49</ele>
        <time>2018-07-01T12:24:25Z</time>
      </trkpt>
      <trkpt lat="45.61918" lon="6.03948">
        <ele>1047.97</ele>
        <time>2018-07-01T12:26:18Z</time>
      </trkpt>
      <trkpt lat="45.61917" lon="6.03935">
        <ele>1044.61</ele>
        <time>2018-07-01T12:29:15Z</time>
      </trkpt>
      <trkpt lat="45.61917" lon="6.0395">
        <ele>1045.57</ele>
        <time>2018-07-01T12:31:02Z</time>
      </trkpt>
      <trkpt lat="45.61911" lon="6.03919">
        <ele>1047.49</ele>
        <time>2018-07-01T12:31:39Z</time>
      </trkpt>
      <trkpt lat="45.61921" lon="6.03879">
        <ele>1049.9</ele>
        <time>2018-07-01T12:32:08Z</time>
      </trkpt>
      <trkpt lat="45.6192" lon="6.03837">
        <ele>1053.74</ele>
        <time>2018-07-01T12:32:46Z</time>
      </trkpt>
      <trkpt lat="45.61939" lon="6.03797">
        <ele>1057.59</ele>
        <time>2018-07-01T12:33:16Z</time>
      </trkpt>
      <trkpt lat="45.61958" lon="6.03771">
        <ele>1059.99</ele>
        <time>2018-07-01T12:33:44Z</time>
      </trkpt>
      <trkpt lat="45.6194" lon="6.03742">
        <ele>1064.32</ele>
        <time>2018-07-01T12:34:52Z</time>
      </trkpt>
      <trkpt lat="45.61923" lon="6.0372">
        <ele>1067.68</ele>
        <time>2018-07-01T12:35:20Z</time>
      </trkpt>
      <trkpt lat="45.61898" lon="6.03694">
        <ele>1071.05</ele>
        <time>2018-07-01T12:35:57Z</time>
      </trkpt>
      <trkpt lat="45.6189" lon="6.03635">
        <ele>1073.45</ele>
        <time>2018-07-01T12:36:25Z</time>
      </trkpt>
      <trkpt lat="45.61882" lon="6.03603">
        <ele>1072.97</ele>
        <time>2018-07-01T12:36:54Z</time>
      </trkpt>
      <trkpt lat="45.61865" lon="6.03557">
        <ele>1072.97</ele>
        <time>2018-07-01T12:37:25Z</time>
      </trkpt>
      <trkpt lat="45.61856" lon="6.03527">
        <ele>1072.97</ele>
        <time>2018-07-01T12:37:47Z</time>
      </trkpt>
      <trkpt lat="45.61845" lon="6.0347">
        <ele>1070.57</ele>
        <time>2018-07-01T12:38:18Z</time>
      </trkpt>
      <trkpt lat="45.61831" lon="6.03431">
        <ele>1072.49</ele>
        <time>2018-07-01T12:39:17Z</time>
      </trkpt>
      <trkpt lat="45.61808" lon="6.03399">
        <ele>1075.37</ele>
        <time>2018-07-01T12:39:55Z</time>
      </trkpt>
      <trkpt lat="45.61803" lon="6.03343">
        <ele>1081.14</ele>
        <time>2018-07-01T12:40:34Z</time>
      </trkpt>
      <trkpt lat="45.618" lon="6.03308">
        <ele>1085.47</ele>
        <time>2018-07-01T12:41:02Z</time>
      </trkpt>
      <trkpt lat="45.61795" lon="6.03277">
        <ele>1088.83</ele>
        <time>2018-07-01T12:41:29Z</time>
      </trkpt>
      <trkpt lat="45.61802" lon="6.03246">
        <ele>1093.16</ele>
        <time>2018-07-01T12:41:58Z</time>
      </trkpt>
      <trkpt lat="45.61808" lon="6.032">
        <ele>1099.4</ele>
        <time>2018-07-01T12:42:44Z</time>
      </trkpt>
      <trkpt lat="45.61823" lon="6.03171">
        <ele>1103.25</ele>
        <time>2018-07-01T12:43:13Z</time>
      </trkpt>
      <trkpt lat="45.61839" lon="6.03148">
        <ele>1107.1</ele>
        <time>2018-07-01T12:43:39Z</time>
      </trkpt>
      <trkpt lat="45.6184" lon="6.03108">
        <ele>1113.34</ele>
        <time>2018-07-01T12:44:22Z</time>
      </trkpt>
      <trkpt lat="45.61844" lon="6.03071">
        <ele>1117.67</ele>
        <time>2018-07-01T12:44:59Z</time>
      </trkpt>
      <trkpt lat="45.61858" lon="6.03037">
        <ele>1120.55</ele>
        <time>2018-07-01T12:45:56Z</time>
      </trkpt>
      <trkpt lat="45.6187" lon="6.02999">
        <ele>1121.52</ele>
        <time>2018-07-01T12:46:18Z</time>
      </trkpt>
      <trkpt lat="45.61871" lon="6.02968">
        <ele>1125.36</ele>
        <time>2018-07-01T12:46:49Z</time>
      </trkpt>
      <trkpt lat="45.61862" lon="6.02939">
        <ele>1125.84</ele>
        <time>2018-07-01T12:47:10Z</time>
      </trkpt>
      <trkpt lat="45.6186" lon="6.02898">
        <ele>1126.32</ele>
        <time>2018-07-01T12:47:41Z</time>
      </trkpt>
      <trkpt lat="45.61862" lon="6.02873">
        <ele>1123.44</ele>
        <time>2018-07-01T12:49:45Z</time>
      </trkpt>
      <trkpt lat="45.61855" lon="6.02837">
        <ele>1122.96</ele>
        <time>2018-07-01T12:50:17Z</time>
      </trkpt>
      <trkpt lat="45.61856" lon="6.02794">
        <ele>1124.88</ele>
        <time>2018-07-01T12:50:49Z</time>
      </trkpt>
      <trkpt lat="45.61856" lon="6.02752">
        <ele>1126.32</ele>
        <time>2018-07-01T12:51:18Z</time>
      </trkpt>
      <trkpt lat="45.6187" lon="6.02699">
        <ele>1122.48</ele>
        <time>2018-07-01T12:51:56Z</time>
      </trkpt>
      <trkpt lat="45.61878" lon="6.02669">
        <ele>1120.07</ele>
        <time>2018-07-01T12:52:17Z</time>
      </trkpt>
      <trkpt lat="45.61898" lon="6.02622">
        <ele>1115.27</ele>
        <time>2018-07-01T12:52:50Z</time>
      </trkpt>
      <trkpt lat="45.61916" lon="6.02576">
        <ele>1109.02</ele>
        <time>2018-07-01T12:53:25Z</time>
      </trkpt>
      <trkpt lat="45.61934" lon="6.02527">
        <ele>1104.21</ele>
        <time>2018-07-01T12:53:58Z</time>
      </trkpt>
      <trkpt lat="45.61945" lon="6.02499">
        <ele>1101.81</ele>
        <time>2018-07-01T12:54:18Z</time>
      </trkpt>
      <trkpt lat="45.61965" lon="6.02448">
        <ele>1097</ele>
        <time>2018-07-01T12:54:52Z</time>
      </trkpt>
      <trkpt lat="45.61991" lon="6.02406">
        <ele>1092.2</ele>
        <time>2018-07-01T12:55:26Z</time>
      </trkpt>
      <trkpt lat="45.6202" lon="6.02376">
        <ele>1089.31</ele>
        <time>2018-07-01T12:55:57Z</time>
      </trkpt>
      <trkpt lat="45.62048" lon="6.02345">
        <ele>1084.99</ele>
        <time>2018-07-01T12:56:30Z</time>
      </trkpt>
      <trkpt lat="45.62073" lon="6.0233">
        <ele>1081.62</ele>
        <time>2018-07-01T12:56:57Z</time>
      </trkpt>
      <trkpt lat="45.62105" lon="6.02358">
        <ele>1080.18</ele>
        <time>2018-07-01T12:57:31Z</time>
      </trkpt>
      <trkpt lat="45.62132" lon="6.02357">
        <ele>1079.7</ele>
        <time>2018-07-01T12:58:06Z</time>
      </trkpt>
      <trkpt lat="45.62137" lon="6.0232">
        <ele>1076.81</ele>
        <time>2018-07-01T12:58:34Z</time>
      </trkpt>
      <trkpt lat="45.62131" lon="6.02287">
        <ele>1072.01</ele>
        <time>2018-07-01T12:59:09Z</time>
      </trkpt>
      <trkpt lat="45.62134" lon="6.0225">
        <ele>1066.72</ele>
        <time>2018-07-01T12:59:39Z</time>
      </trkpt>
      <trkpt lat="45.62159" lon="6.02233">
        <ele>1058.55</ele>
        <time>2018-07-01T13:00:20Z</time>
      </trkpt>
      <trkpt lat="45.62162" lon="6.02204">
        <ele>1050.38</ele>
        <time>2018-07-01T13:00:58Z</time>
      </trkpt>
      <trkpt lat="45.62149" lon="6.02168">
        <ele>1043.17</ele>
        <time>2018-07-01T13:01:35Z</time>
      </trkpt>
      <trkpt lat="45.62133" lon="6.0214">
        <ele>1038.84</ele>
        <time>2018-07-01T13:02:03Z</time>
      </trkpt>
      <trkpt lat="45.62119" lon="6.02106">
        <ele>1035</ele>
        <time>2018-07-01T13:02:29Z</time>
      </trkpt>
      <trkpt lat="45.6211" lon="6.02076">
        <ele>1032.11</ele>
        <time>2018-07-01T13:02:53Z</time>
      </trkpt>
      <trkpt lat="45.62101" lon="6.02025">
        <ele>1026.83</ele>
        <time>2018-07-01T13:03:24Z</time>
      </trkpt>
      <trkpt lat="45.62101" lon="6.01987">
        <ele>1022.5</ele>
        <time>2018-07-01T13:03:47Z</time>
      </trkpt>
      <trkpt lat="45.62127" lon="6.0197">
        <ele>1022.02</ele>
        <time>2018-07-01T13:04:13Z</time>
      </trkpt>
      <trkpt lat="45.62158" lon="6.0194">
        <ele>1021.54</ele>
        <time>2018-07-01T13:04:44Z</time>
      </trkpt>
      <trkpt lat="45.62177" lon="6.01908">
        <ele>1020.58</ele>
        <time>2018-07-01T13:05:07Z</time>
      </trkpt>
      <trkpt lat="45.62188" lon="6.01874">
        <ele>1019.62</ele>
        <time>2018-07-01T13:05:28Z</time>
      </trkpt>
      <trkpt lat="45.6219" lon="6.01842">
        <ele>1018.17</ele>
        <time>2018-07-01T13:05:46Z</time>
      </trkpt>
      <trkpt lat="45.62195" lon="6.01802">
        <ele>1017.69</ele>
        <time>2018-07-01T13:06:08Z</time>
      </trkpt>
      <trkpt lat="45.62214" lon="6.01764">
        <ele>1015.77</ele>
        <time>2018-07-01T13:06:33Z</time>
      </trkpt>
      <trkpt lat="45.62232" lon="6.01741">
        <ele>1014.33</ele>
        <time>2018-07-01T13:06:51Z</time>
      </trkpt>
      <trkpt lat="45.62255" lon="6.01721">
        <ele>1013.37</ele>
        <time>2018-07-01T13:07:13Z</time>
      </trkpt>
      <trkpt lat="45.62279" lon="6.01713">
        <ele>1012.89</ele>
        <time>2018-07-01T13:07:32Z</time>
      </trkpt>
      <trkpt lat="45.62319" lon="6.01705">
        <ele>1013.85</ele>
        <time>2018-07-01T13:08:07Z</time>
      </trkpt>
      <trkpt lat="45.62341" lon="6.017">
        <ele>1015.77</ele>
        <time>2018-07-01T13:08:29Z</time>
      </trkpt>
      <trkpt lat="45.62355" lon="6.01692">
        <ele>1013.85</ele>
        <time>2018-07-01T13:09:25Z</time>
      </trkpt>
    </trkseg>
  </trk>
</gpx>